sensor_id;sensor_type;location;lat;lon;timestamp;pressure;altitude;pressure_sealevel;temperature;humidity
11038;BME280;5572;49.540;11.932;2023-03-15T00:02:24;96011.31;;;2.48;100.00
11038;BME280;5572;49.540;11.932;2023-03-15T00:04:51;96011.34;;;2.53;100.00
11038;BME280;5572;49.540;11.932;2023-03-15T00:07:19;96015.25;;;2.45;100.00
11038;BME280;5572;49.540;11.932;2023-03-15T00:09:50;96032.97;;;2.56;100.00
11038;BME280;5572;49.540;11.932;2023-03-15T00:12:16;96041.84;;;2.61;100.00
11038;BME280;5572;49.540;11.932;2023-03-15T00:14:44;96034.94;;;2.65;100.00
11038;BME280;5572;49.540;11.932;2023-03-15T00:17:11;96051.22;;;2.64;100.00
11038;BME280;5572;49.540;11.932;2023-03-15T00:19:37;96041.81;;;2.56;100.00
11038;BME280;5572;49.540;11.932;2023-03-15T00:22:04;96053.38;;;2.67;100.00
11038;BME280;5572;49.540;11.932;2023-03-15T00:24:31;96045.47;;;2.51;100.00
11038;BME280;5572;49.540;11.932;2023-03-15T00:26:57;96048.97;;;2.56;100.00
11038;BME280;5572;49.540;11.932;2023-03-15T00:29:24;96040.44;;;2.54;100.00
11038;BME280;5572;49.540;11.932;2023-03-15T00:31:52;96048.50;;;2.59;100.00
11038;BME280;5572;49.540;11.932;2023-03-15T00:34:18;96052.06;;;2.69;100.00
11038;BME280;5572;49.540;11.932;2023-03-15T00:36:48;96059.25;;;2.69;100.00
11038;BME280;5572;49.540;11.932;2023-03-15T00:39:17;96077.94;;;2.69;100.00
11038;BME280;5572;49.540;11.932;2023-03-15T00:41:44;96080.78;;;2.62;100.00
11038;BME280;5572;49.540;11.932;2023-03-15T00:44:11;96085.78;;;2.54;100.00
11038;BME280;5572;49.540;11.932;2023-03-15T00:46:37;96084.56;;;2.40;100.00
11038;BME280;5572;49.540;11.932;2023-03-15T00:49:05;96098.78;;;2.51;100.00
11038;BME280;5572;49.540;11.932;2023-03-15T00:51:32;96102.97;;;2.63;100.00
11038;BME280;5572;49.540;11.932;2023-03-15T00:53:59;96119.16;;;2.56;100.00
11038;BME280;5572;49.540;11.932;2023-03-15T00:56:26;96128.97;;;2.51;100.00
11038;BME280;5572;49.540;11.932;2023-03-15T00:58:54;96112.88;;;2.46;100.00
11038;BME280;5572;49.540;11.932;2023-03-15T01:01:22;96108.56;;;2.40;100.00
11038;BME280;5572;49.540;11.932;2023-03-15T01:03:49;96114.78;;;2.24;100.00
11038;BME280;5572;49.540;11.932;2023-03-15T01:06:18;96115.09;;;2.28;100.00
11038;BME280;5572;49.540;11.932;2023-03-15T01:08:45;96119.28;;;2.45;100.00
11038;BME280;5572;49.540;11.932;2023-03-15T01:11:14;96110.59;;;2.54;100.00
11038;BME280;5572;49.540;11.932;2023-03-15T01:13:41;96121.72;;;2.47;100.00
11038;BME280;5572;49.540;11.932;2023-03-15T01:16:08;96116.94;;;2.49;100.00
11038;BME280;5572;49.540;11.932;2023-03-15T01:18:35;96113.75;;;2.52;100.00
11038;BME280;5572;49.540;11.932;2023-03-15T01:21:05;96113.31;;;2.59;100.00
11038;BME280;5572;49.540;11.932;2023-03-15T01:23:33;96112.19;;;2.55;100.00
11038;BME280;5572;49.540;11.932;2023-03-15T01:26:00;96110.66;;;2.38;100.00
11038;BME280;5572;49.540;11.932;2023-03-15T01:28:27;96121.72;;;2.47;100.00
11038;BME280;5572;49.540;11.932;2023-03-15T01:30:53;96131.06;;;2.49;100.00
11038;BME280;5572;49.540;11.932;2023-03-15T01:33:20;96143.09;;;2.52;100.00
11038;BME280;5572;49.540;11.932;2023-03-15T01:35:57;96142.34;;;2.56;100.00
11038;BME280;5572;49.540;11.932;2023-03-15T01:38:24;96138.31;;;2.53;100.00
11038;BME280;5572;49.540;11.932;2023-03-15T01:40:52;96133.69;;;2.44;100.00
11038;BME280;5572;49.540;11.932;2023-03-15T01:43:20;96129.00;;;2.56;100.00
11038;BME280;5572;49.540;11.932;2023-03-15T01:46:02;96144.78;;;2.57;100.00
11038;BME280;5572;49.540;11.932;2023-03-15T01:48:34;96143.38;;;2.55;100.00
11038;BME280;5572;49.540;11.932;2023-03-15T01:51:06;96148.38;;;2.47;100.00
11038;BME280;5572;49.540;11.932;2023-03-15T01:53:35;96174.97;;;2.42;100.00
11038;BME280;5572;49.540;11.932;2023-03-15T01:56:05;96173.03;;;2.37;100.00
11038;BME280;5572;49.540;11.932;2023-03-15T01:58:32;96185.88;;;2.40;100.00
11038;BME280;5572;49.540;11.932;2023-03-15T02:01:00;96183.47;;;2.39;100.00
11038;BME280;5572;49.540;11.932;2023-03-15T02:03:29;96192.75;;;2.36;100.00
11038;BME280;5572;49.540;11.932;2023-03-15T02:05:59;96198.22;;;2.46;100.00
11038;BME280;5572;49.540;11.932;2023-03-15T02:08:30;96205.16;;;2.47;100.00
11038;BME280;5572;49.540;11.932;2023-03-15T02:10:58;96203.81;;;2.45;100.00
11038;BME280;5572;49.540;11.932;2023-03-15T02:13:28;96205.13;;;2.42;100.00
11038;BME280;5572;49.540;11.932;2023-03-15T02:15:55;96211.13;;;2.33;100.00
11038;BME280;5572;49.540;11.932;2023-03-15T02:18:22;96206.38;;;2.18;100.00
11038;BME280;5572;49.540;11.932;2023-03-15T02:20:52;96207.44;;;2.17;100.00
11038;BME280;5572;49.540;11.932;2023-03-15T02:23:25;96212.72;;;2.12;100.00
11038;BME280;5572;49.540;11.932;2023-03-15T02:25:56;96203.69;;;1.97;100.00
11038;BME280;5572;49.540;11.932;2023-03-15T02:28:34;96215.97;;;1.98;100.00
11038;BME280;5572;49.540;11.932;2023-03-15T02:31:00;96225.00;;;1.97;100.00
11038;BME280;5572;49.540;11.932;2023-03-15T02:33:29;96238.69;;;2.05;100.00
11038;BME280;5572;49.540;11.932;2023-03-15T02:36:17;96254.47;;;2.07;100.00
11038;BME280;5572;49.540;11.932;2023-03-15T02:38:45;96257.44;;;2.10;100.00
11038;BME280;5572;49.540;11.932;2023-03-15T02:41:14;96271.56;;;2.11;100.00
11038;BME280;5572;49.540;11.932;2023-03-15T02:43:44;96263.41;;;2.01;100.00
11038;BME280;5572;49.540;11.932;2023-03-15T02:46:12;96262.16;;;2.03;100.00
11038;BME280;5572;49.540;11.932;2023-03-15T02:48:41;96277.00;;;2.16;100.00
11038;BME280;5572;49.540;11.932;2023-03-15T02:51:15;96282.06;;;2.17;100.00
11038;BME280;5572;49.540;11.932;2023-03-15T02:53:43;96278.63;;;2.17;100.00
11038;BME280;5572;49.540;11.932;2023-03-15T02:56:09;96271.81;;;2.09;100.00
11038;BME280;5572;49.540;11.932;2023-03-15T02:58:35;96277.78;;;2.16;100.00
11038;BME280;5572;49.540;11.932;2023-03-15T03:01:04;96283.22;;;2.21;100.00
11038;BME280;5572;49.540;11.932;2023-03-15T03:03:30;96274.25;;;2.11;100.00
11038;BME280;5572;49.540;11.932;2023-03-15T03:05:57;96280.22;;;2.18;100.00
11038;BME280;5572;49.540;11.932;2023-03-15T03:08:23;96299.69;;;2.18;100.00
11038;BME280;5572;49.540;11.932;2023-03-15T03:10:50;96299.63;;;2.13;100.00
11038;BME280;5572;49.540;11.932;2023-03-15T03:13:16;96301.09;;;2.04;100.00
11038;BME280;5572;49.540;11.932;2023-03-15T03:15:43;96305.09;;;2.23;100.00
11038;BME280;5572;49.540;11.932;2023-03-15T03:18:11;96316.97;;;2.16;100.00
11038;BME280;5572;49.540;11.932;2023-03-15T03:20:37;96320.44;;;2.16;100.00
11038;BME280;5572;49.540;11.932;2023-03-15T03:23:04;96321.63;;;2.25;100.00
11038;BME280;5572;49.540;11.932;2023-03-15T03:25:30;96332.09;;;2.27;100.00
11038;BME280;5572;49.540;11.932;2023-03-15T03:27:57;96353.88;;;2.24;100.00
11038;BME280;5572;49.540;11.932;2023-03-15T03:30:28;96348.88;;;2.27;100.00
11038;BME280;5572;49.540;11.932;2023-03-15T03:32:55;96354.53;;;2.31;100.00
11038;BME280;5572;49.540;11.932;2023-03-15T03:35:23;96360.69;;;2.31;100.00
11038;BME280;5572;49.540;11.932;2023-03-15T03:37:49;96362.72;;;2.24;100.00
11038;BME280;5572;49.540;11.932;2023-03-15T03:40:18;96359.94;;;2.19;100.00
11038;BME280;5572;49.540;11.932;2023-03-15T03:42:45;96368.75;;;2.20;100.00
11038;BME280;5572;49.540;11.932;2023-03-15T03:45:11;96376.66;;;2.15;100.00
11038;BME280;5572;49.540;11.932;2023-03-15T03:47:37;96389.91;;;2.26;100.00
11038;BME280;5572;49.540;11.932;2023-03-15T03:50:05;96393.38;;;2.10;100.00
11038;BME280;5572;49.540;11.932;2023-03-15T03:52:33;96387.50;;;2.25;100.00
11038;BME280;5572;49.540;11.932;2023-03-15T03:55:00;96395.31;;;2.15;100.00
11038;BME280;5572;49.540;11.932;2023-03-15T03:57:26;96398.56;;;2.17;100.00
11038;BME280;5572;49.540;11.932;2023-03-15T03:59:53;96399.13;;;2.19;100.00
11038;BME280;5572;49.540;11.932;2023-03-15T04:02:19;96401.56;;;2.20;100.00
11038;BME280;5572;49.540;11.932;2023-03-15T04:04:46;96421.00;;;2.21;100.00
11038;BME280;5572;49.540;11.932;2023-03-15T04:07:14;96429.81;;;2.05;100.00
11038;BME280;5572;49.540;11.932;2023-03-15T04:09:42;96425.19;;;2.00;100.00
11038;BME280;5572;49.540;11.932;2023-03-15T04:12:09;96428.25;;;1.92;100.00
11038;BME280;5572;49.540;11.932;2023-03-15T04:14:35;96438.66;;;1.94;100.00
11038;BME280;5572;49.540;11.932;2023-03-15T04:17:02;96444.88;;;1.99;100.00
11038;BME280;5572;49.540;11.932;2023-03-15T04:19:29;96439.28;;;1.84;100.00
11038;BME280;5572;49.540;11.932;2023-03-15T04:21:55;96452.84;;;1.83;100.00
11038;BME280;5572;49.540;11.932;2023-03-15T04:24:22;96459.91;;;1.77;100.00
11038;BME280;5572;49.540;11.932;2023-03-15T04:26:50;96453.53;;;1.78;100.00
11038;BME280;5572;49.540;11.932;2023-03-15T04:29:22;96457.63;;;1.69;100.00
11038;BME280;5572;49.540;11.932;2023-03-15T04:31:48;96469.66;;;1.72;100.00
11038;BME280;5572;49.540;11.932;2023-03-15T04:34:15;96469.28;;;1.80;100.00
11038;BME280;5572;49.540;11.932;2023-03-15T04:36:42;96476.72;;;1.78;100.00
11038;BME280;5572;49.540;11.932;2023-03-15T04:39:08;96494.22;;;1.74;100.00
11038;BME280;5572;49.540;11.932;2023-03-15T04:41:36;96485.31;;;1.68;100.00
11038;BME280;5572;49.540;11.932;2023-03-15T04:44:05;96489.00;;;1.67;100.00
11038;BME280;5572;49.540;11.932;2023-03-15T04:46:31;96500.59;;;1.73;100.00
11038;BME280;5572;49.540;11.932;2023-03-15T04:48:58;96511.91;;;1.91;100.00
11038;BME280;5572;49.540;11.932;2023-03-15T04:51:25;96516.97;;;1.93;100.00
11038;BME280;5572;49.540;11.932;2023-03-15T04:56:20;96523.97;;;1.82;100.00
11038;BME280;5572;49.540;11.932;2023-03-15T04:59:06;96519.81;;;1.75;100.00
11038;BME280;5572;49.540;11.932;2023-03-15T05:01:36;96530.13;;;1.71;100.00
11038;BME280;5572;49.540;11.932;2023-03-15T05:04:05;96539.97;;;1.71;100.00
11038;BME280;5572;49.540;11.932;2023-03-15T05:06:32;96531.53;;;1.63;100.00
11038;BME280;5572;49.540;11.932;2023-03-15T05:09:00;96542.06;;;1.58;100.00
11038;BME280;5572;49.540;11.932;2023-03-15T05:11:28;96552.16;;;1.56;100.00
11038;BME280;5572;49.540;11.932;2023-03-15T05:13:55;96545.09;;;1.50;100.00
11038;BME280;5572;49.540;11.932;2023-03-15T05:16:26;96542.56;;;1.43;100.00
11038;BME280;5572;49.540;11.932;2023-03-15T05:18:54;96546.03;;;1.32;100.00
11038;BME280;5572;49.540;11.932;2023-03-15T05:21:22;96537.81;;;1.22;100.00
11038;BME280;5572;49.540;11.932;2023-03-15T05:23:51;96555.53;;;1.17;100.00
11038;BME280;5572;49.540;11.932;2023-03-15T05:26:19;96552.88;;;1.05;100.00
11038;BME280;5572;49.540;11.932;2023-03-15T05:28:47;96548.72;;;1.09;100.00
11038;BME280;5572;49.540;11.932;2023-03-15T05:31:15;96552.63;;;1.07;100.00
11038;BME280;5572;49.540;11.932;2023-03-15T05:33:44;96572.53;;;0.93;100.00
11038;BME280;5572;49.540;11.932;2023-03-15T05:36:13;96577.94;;;0.98;100.00
11038;BME280;5572;49.540;11.932;2023-03-15T05:38:40;96589.78;;;1.02;100.00
11038;BME280;5572;49.540;11.932;2023-03-15T05:41:08;96591.38;;;1.03;100.00
11038;BME280;5572;49.540;11.932;2023-03-15T05:43:36;96595.53;;;1.10;100.00
11038;BME280;5572;49.540;11.932;2023-03-15T05:46:04;96596.81;;;1.08;100.00
11038;BME280;5572;49.540;11.932;2023-03-15T05:48:32;96610.16;;;1.19;100.00
11038;BME280;5572;49.540;11.932;2023-03-15T05:51:01;96614.31;;;1.15;100.00
11038;BME280;5572;49.540;11.932;2023-03-15T05:53:29;96629.94;;;1.12;100.00
11038;BME280;5572;49.540;11.932;2023-03-15T05:55:57;96636.53;;;1.21;100.00
11038;BME280;5572;49.540;11.932;2023-03-15T05:58:25;96638.41;;;1.32;100.00
11038;BME280;5572;49.540;11.932;2023-03-15T06:00:53;96651.28;;;1.46;100.00
11038;BME280;5572;49.540;11.932;2023-03-15T06:03:21;96680.22;;;1.88;100.00
11038;BME280;5572;49.540;11.932;2023-03-15T06:05:49;96713.59;;;3.32;100.00
11038;BME280;5572;49.540;11.932;2023-03-15T06:08:18;96768.13;;;4.29;100.00
11038;BME280;5572;49.540;11.932;2023-03-15T06:10:45;96780.75;;;4.88;100.00
11038;BME280;5572;49.540;11.932;2023-03-15T06:13:13;96767.63;;;5.29;100.00
11038;BME280;5572;49.540;11.932;2023-03-15T06:15:41;96779.75;;;5.63;100.00
11038;BME280;5572;49.540;11.932;2023-03-15T06:18:08;96773.34;;;5.90;100.00
11038;BME280;5572;49.540;11.932;2023-03-15T06:20:38;96762.66;;;6.26;100.00
11038;BME280;5572;49.540;11.932;2023-03-15T06:23:06;96728.72;;;5.53;100.00
11038;BME280;5572;49.540;11.932;2023-03-15T06:25:35;96720.22;;;6.23;100.00
11038;BME280;5572;49.540;11.932;2023-03-15T06:28:03;96706.03;;;7.55;100.00
11038;BME280;5572;49.540;11.932;2023-03-15T06:30:30;96649.97;;;6.92;100.00
11038;BME280;5572;49.540;11.932;2023-03-15T06:32:58;96610.53;;;7.08;100.00
11038;BME280;5572;49.540;11.932;2023-03-15T06:35:26;96563.31;;;6.46;100.00
11038;BME280;5572;49.540;11.932;2023-03-15T06:37:53;96540.00;;;8.00;100.00
11038;BME280;5572;49.540;11.932;2023-03-15T06:40:21;96537.09;;;7.82;100.00
11038;BME280;5572;49.540;11.932;2023-03-15T06:42:50;96496.91;;;6.11;100.00
11038;BME280;5572;49.540;11.932;2023-03-15T06:45:19;96449.03;;;5.79;100.00
11038;BME280;5572;49.540;11.932;2023-03-15T06:47:47;96425.31;;;6.37;100.00
11038;BME280;5572;49.540;11.932;2023-03-15T06:50:15;96379.28;;;4.40;100.00
11038;BME280;5572;49.540;11.932;2023-03-15T06:52:42;96381.03;;;6.79;100.00
11038;BME280;5572;49.540;11.932;2023-03-15T06:55:10;96296.44;;;7.55;100.00
11038;BME280;5572;49.540;11.932;2023-03-15T06:57:42;96149.13;;;3.84;100.00
11038;BME280;5572;49.540;11.932;2023-03-15T07:00:13;96000.34;;;4.04;100.00
11038;BME280;5572;49.540;11.932;2023-03-15T07:02:41;95970.56;;;5.99;100.00
11038;BME280;5572;49.540;11.932;2023-03-15T07:05:10;95955.56;;;7.93;100.00
11038;BME280;5572;49.540;11.932;2023-03-15T07:07:37;95963.59;;;8.40;100.00
11038;BME280;5572;49.540;11.932;2023-03-15T07:10:05;95973.50;;;8.45;100.00
11038;BME280;5572;49.540;11.932;2023-03-15T07:12:33;96039.94;;;6.31;100.00
11038;BME280;5572;49.540;11.932;2023-03-15T07:15:00;96048.00;;;6.26;100.00
11038;BME280;5572;49.540;11.932;2023-03-15T07:17:28;96066.38;;;5.24;100.00
11038;BME280;5572;49.540;11.932;2023-03-15T07:19:56;96027.31;;;6.80;100.00
11038;BME280;5572;49.540;11.932;2023-03-15T07:22:24;96036.03;;;5.94;100.00
11038;BME280;5572;49.540;11.932;2023-03-15T07:24:51;95999.66;;;8.81;100.00
11038;BME280;5572;49.540;11.932;2023-03-15T07:27:17;96013.44;;;8.79;100.00
11038;BME280;5572;49.540;11.932;2023-03-15T07:29:44;95991.16;;;9.24;100.00
11038;BME280;5572;49.540;11.932;2023-03-15T07:32:11;96083.75;;;8.36;100.00
11038;BME280;5572;49.540;11.932;2023-03-15T07:34:41;96063.38;;;8.72;100.00
11038;BME280;5572;49.540;11.932;2023-03-15T07:37:08;96062.13;;;9.38;100.00
11038;BME280;5572;49.540;11.932;2023-03-15T07:39:35;96139.06;;;8.24;100.00
11038;BME280;5572;49.540;11.932;2023-03-15T07:42:02;96151.44;;;7.96;100.00
11038;BME280;5572;49.540;11.932;2023-03-15T07:44:31;96210.50;;;8.16;100.00
11038;BME280;5572;49.540;11.932;2023-03-15T07:46:58;96241.88;;;7.49;100.00
11038;BME280;5572;49.540;11.932;2023-03-15T07:49:25;96289.81;;;8.24;100.00
11038;BME280;5572;49.540;11.932;2023-03-15T07:51:54;96363.91;;;5.54;100.00
11038;BME280;5572;49.540;11.932;2023-03-15T07:54:22;96410.31;;;4.41;100.00
11038;BME280;5572;49.540;11.932;2023-03-15T07:56:49;96395.72;;;5.36;100.00
11038;BME280;5572;49.540;11.932;2023-03-15T07:59:17;96454.28;;;3.76;100.00
11038;BME280;5572;49.540;11.932;2023-03-15T08:01:44;96450.25;;;4.21;100.00
11038;BME280;5572;49.540;11.932;2023-03-15T08:04:11;96370.66;;;7.56;100.00
11038;BME280;5572;49.540;11.932;2023-03-15T08:06:39;96363.50;;;8.38;100.00
11038;BME280;5572;49.540;11.932;2023-03-15T08:09:09;96454.19;;;5.95;100.00
11038;BME280;5572;49.540;11.932;2023-03-15T08:11:36;96398.00;;;8.69;100.00
11038;BME280;5572;49.540;11.932;2023-03-15T08:14:04;96380.31;;;9.48;100.00
11038;BME280;5572;49.540;11.932;2023-03-15T08:16:32;96414.44;;;9.34;100.00
11038;BME280;5572;49.540;11.932;2023-03-15T08:18:59;96472.06;;;8.81;100.00
11038;BME280;5572;49.540;11.932;2023-03-15T08:21:27;96554.13;;;8.46;100.00
11038;BME280;5572;49.540;11.932;2023-03-15T08:23:57;96486.22;;;9.30;100.00
11038;BME280;5572;49.540;11.932;2023-03-15T08:26:27;96656.41;;;4.79;100.00
11038;BME280;5572;49.540;11.932;2023-03-15T08:28:55;96656.22;;;5.38;100.00
11038;BME280;5572;49.540;11.932;2023-03-15T08:31:23;96674.47;;;4.88;100.00
11038;BME280;5572;49.540;11.932;2023-03-15T08:33:50;96700.16;;;5.10;100.00
11038;BME280;5572;49.540;11.932;2023-03-15T08:36:18;96676.44;;;4.98;100.00
11038;BME280;5572;49.540;11.932;2023-03-15T08:38:45;96680.81;;;4.61;100.00
11038;BME280;5572;49.540;11.932;2023-03-15T08:41:13;96717.09;;;4.14;100.00
11038;BME280;5572;49.540;11.932;2023-03-15T08:43:42;96721.00;;;3.74;100.00
11038;BME280;5572;49.540;11.932;2023-03-15T08:46:09;96707.25;;;4.20;100.00
11038;BME280;5572;49.540;11.932;2023-03-15T08:48:37;96700.84;;;4.37;100.00
11038;BME280;5572;49.540;11.932;2023-03-15T08:51:06;96696.97;;;4.28;100.00
11038;BME280;5572;49.540;11.932;2023-03-15T08:53:34;96720.28;;;3.95;100.00
11038;BME280;5572;49.540;11.932;2023-03-15T08:56:03;96731.09;;;4.21;100.00
11038;BME280;5572;49.540;11.932;2023-03-15T08:58:33;96722.47;;;3.98;100.00
11038;BME280;5572;49.540;11.932;2023-03-15T09:01:03;96707.34;;;5.10;100.00
11038;BME280;5572;49.540;11.932;2023-03-15T09:03:34;96705.88;;;5.19;100.00
11038;BME280;5572;49.540;11.932;2023-03-15T09:06:02;96718.63;;;5.12;100.00
11038;BME280;5572;49.540;11.932;2023-03-15T09:08:32;96741.28;;;5.00;100.00
11038;BME280;5572;49.540;11.932;2023-03-15T09:11:02;96754.59;;;5.16;100.00
11038;BME280;5572;49.540;11.932;2023-03-15T09:13:33;96775.09;;;4.84;100.00
11038;BME280;5572;49.540;11.932;2023-03-15T09:16:04;96793.41;;;4.92;100.00
11038;BME280;5572;49.540;11.932;2023-03-15T09:18:35;96789.69;;;5.41;100.00
11038;BME280;5572;49.540;11.932;2023-03-15T09:21:06;96794.72;;;5.80;100.00
11038;BME280;5572;49.540;11.932;2023-03-15T09:23:34;96796.06;;;5.35;100.00
11038;BME280;5572;49.540;11.932;2023-03-15T09:26:03;96802.88;;;5.42;100.00
11038;BME280;5572;49.540;11.932;2023-03-15T09:28:32;96800.31;;;5.31;100.00
11038;BME280;5572;49.540;11.932;2023-03-15T09:31:05;96819.91;;;5.79;100.00
11038;BME280;5572;49.540;11.932;2023-03-15T09:33:33;96845.25;;;5.67;100.00
11038;BME280;5572;49.540;11.932;2023-03-15T09:36:01;96857.38;;;5.96;100.00
11038;BME280;5572;49.540;11.932;2023-03-15T09:38:29;96852.97;;;5.85;100.00
11038;BME280;5572;49.540;11.932;2023-03-15T09:40:59;96888.94;;;5.46;100.00
11038;BME280;5572;49.540;11.932;2023-03-15T09:46:28;96917.72;;;5.34;100.00
11038;BME280;5572;49.540;11.932;2023-03-15T09:49:02;96928.72;;;5.75;100.00
11038;BME280;5572;49.540;11.932;2023-03-15T09:51:37;96944.84;;;5.37;100.00
11038;BME280;5572;49.540;11.932;2023-03-15T09:54:10;96959.91;;;5.22;100.00
11038;BME280;5572;49.540;11.932;2023-03-15T09:56:41;96951.91;;;6.29;100.00
11038;BME280;5572;49.540;11.932;2023-03-15T09:59:13;96925.25;;;6.80;100.00
11038;BME280;5572;49.540;11.932;2023-03-15T10:01:50;96929.22;;;7.09;100.00
11038;BME280;5572;49.540;11.932;2023-03-15T10:04:26;96968.97;;;6.18;100.00
11038;BME280;5572;49.540;11.932;2023-03-15T10:06:56;96956.88;;;6.99;100.00
11038;BME280;5572;49.540;11.932;2023-03-15T10:09:25;97002.91;;;6.29;100.00
11038;BME280;5572;49.540;11.932;2023-03-15T10:12:02;96995.63;;;6.03;100.00
11038;BME280;5572;49.540;11.932;2023-03-15T10:14:55;97030.19;;;6.21;100.00
11038;BME280;5572;49.540;11.932;2023-03-15T10:17:34;97034.06;;;6.08;100.00
11038;BME280;5572;49.540;11.932;2023-03-15T10:20:02;97029.88;;;6.39;100.00
11038;BME280;5572;49.540;11.932;2023-03-15T10:22:35;97049.66;;;7.07;100.00
11038;BME280;5572;49.540;11.932;2023-03-15T10:25:05;97025.16;;;7.03;100.00
11038;BME280;5572;49.540;11.932;2023-03-15T10:27:37;97001.97;;;6.97;100.00
11038;BME280;5572;49.540;11.932;2023-03-15T10:30:12;96993.94;;;6.71;100.00
11038;BME280;5572;49.540;11.932;2023-03-15T10:32:42;97020.84;;;6.02;100.00
11038;BME280;5572;49.540;11.932;2023-03-15T10:35:14;97031.19;;;5.94;100.00
11038;BME280;5572;49.540;11.932;2023-03-15T10:37:41;97038.97;;;5.95;100.00
11038;BME280;5572;49.540;11.932;2023-03-15T10:40:11;97036.53;;;5.94;100.00
11038;BME280;5572;49.540;11.932;2023-03-15T10:42:40;97054.56;;;5.77;100.00
11038;BME280;5572;49.540;11.932;2023-03-15T10:45:18;97058.25;;;5.38;100.00
11038;BME280;5572;49.540;11.932;2023-03-15T10:47:48;97059.97;;;5.82;100.00
11038;BME280;5572;49.540;11.932;2023-03-15T10:50:17;97043.34;;;6.70;100.00
11038;BME280;5572;49.540;11.932;2023-03-15T10:52:55;97059.06;;;6.57;100.00
11038;BME280;5572;49.540;11.932;2023-03-15T10:55:29;97032.56;;;7.23;100.00
11038;BME280;5572;49.540;11.932;2023-03-15T10:57:58;97030.94;;;7.53;100.00
11038;BME280;5572;49.540;11.932;2023-03-15T11:00:27;97052.41;;;7.89;100.00
11038;BME280;5572;49.540;11.932;2023-03-15T11:05:42;97068.34;;;6.71;100.00
11038;BME280;5572;49.540;11.932;2023-03-15T11:08:11;97072.56;;;6.62;100.00
11038;BME280;5572;49.540;11.932;2023-03-15T11:10:41;97088.91;;;6.82;100.00
11038;BME280;5572;49.540;11.932;2023-03-15T11:13:10;97101.50;;;6.81;100.00
11038;BME280;5572;49.540;11.932;2023-03-15T11:15:39;97137.91;;;5.92;100.00
11038;BME280;5572;49.540;11.932;2023-03-15T11:18:16;97139.78;;;4.70;100.00
11038;BME280;5572;49.540;11.932;2023-03-15T11:20:45;97127.53;;;3.72;100.00
11038;BME280;5572;49.540;11.932;2023-03-15T11:23:19;97073.84;;;3.28;100.00
11038;BME280;5572;49.540;11.932;2023-03-15T11:25:50;97019.81;;;3.15;100.00
11038;BME280;5572;49.540;11.932;2023-03-15T11:28:22;97011.50;;;2.59;100.00
11038;BME280;5572;49.540;11.932;2023-03-15T11:30:52;96973.94;;;2.95;100.00
11038;BME280;5572;49.540;11.932;2023-03-15T11:33:30;96958.63;;;2.90;100.00
11038;BME280;5572;49.540;11.932;2023-03-15T11:36:03;96948.84;;;3.30;100.00
11038;BME280;5572;49.540;11.932;2023-03-15T11:38:35;96946.81;;;3.09;100.00
11038;BME280;5572;49.540;11.932;2023-03-15T11:41:11;96929.00;;;3.49;100.00
11038;BME280;5572;49.540;11.932;2023-03-15T11:43:49;96926.31;;;3.49;100.00
11038;BME280;5572;49.540;11.932;2023-03-15T11:46:24;96905.22;;;3.92;100.00
11038;BME280;5572;49.540;11.932;2023-03-15T11:48:58;96901.97;;;3.73;100.00
11038;BME280;5572;49.540;11.932;2023-03-15T11:51:32;96882.00;;;3.92;100.00
11038;BME280;5572;49.540;11.932;2023-03-15T11:54:06;96883.75;;;3.87;100.00
11038;BME280;5572;49.540;11.932;2023-03-15T11:56:52;96874.44;;;3.89;100.00
11038;BME280;5572;49.540;11.932;2023-03-15T11:59:25;96860.03;;;3.62;100.00
11038;BME280;5572;49.540;11.932;2023-03-15T12:01:58;96856.88;;;3.65;100.00
11038;BME280;5572;49.540;11.932;2023-03-15T12:04:47;96814.09;;;3.93;100.00
11038;BME280;5572;49.540;11.932;2023-03-15T12:07:37;96805.97;;;3.88;100.00
11038;BME280;5572;49.540;11.932;2023-03-15T12:10:33;96782.88;;;4.15;100.00
11038;BME280;5572;49.540;11.932;2023-03-15T12:13:22;96773.44;;;4.08;100.00
11038;BME280;5572;49.540;11.932;2023-03-15T12:15:49;96750.56;;;3.67;100.00
11038;BME280;5572;49.540;11.932;2023-03-15T12:18:24;96720.16;;;4.06;100.00
11038;BME280;5572;49.540;11.932;2023-03-15T12:21:04;96691.28;;;4.03;100.00
11038;BME280;5572;49.540;11.932;2023-03-15T12:23:37;96690.69;;;4.01;100.00
11038;BME280;5572;49.540;11.932;2023-03-15T12:26:08;96670.31;;;3.79;100.00
11038;BME280;5572;49.540;11.932;2023-03-15T12:28:37;96643.94;;;3.87;100.00
11038;BME280;5572;49.540;11.932;2023-03-15T12:31:06;96618.75;;;4.21;100.00
11038;BME280;5572;49.540;11.932;2023-03-15T12:33:44;96600.53;;;4.18;100.00
11038;BME280;5572;49.540;11.932;2023-03-15T12:36:18;96597.06;;;4.18;100.00
11038;BME280;5572;49.540;11.932;2023-03-15T12:39:18;96570.34;;;4.22;100.00
11038;BME280;5572;49.540;11.932;2023-03-15T12:41:45;96554.50;;;4.16;100.00
11038;BME280;5572;49.540;11.932;2023-03-15T12:44:24;96559.91;;;3.78;100.00
11038;BME280;5572;49.540;11.932;2023-03-15T12:46:58;96540.38;;;3.99;100.00
11038;BME280;5572;49.540;11.932;2023-03-15T12:49:41;96513.31;;;4.17;100.00
11038;BME280;5572;49.540;11.932;2023-03-15T12:52:26;96498.97;;;4.02;100.00
11038;BME280;5572;49.540;11.932;2023-03-15T12:54:59;96500.69;;;3.70;100.00
11038;BME280;5572;49.540;11.932;2023-03-15T12:57:28;96478.56;;;4.17;100.00
11038;BME280;5572;49.540;11.932;2023-03-15T12:59:56;96454.34;;;4.28;100.00
11038;BME280;5572;49.540;11.932;2023-03-15T13:02:28;96453.34;;;3.87;100.00
11038;BME280;5572;49.540;11.932;2023-03-15T13:05:12;96417.47;;;4.62;100.00
11038;BME280;5572;49.540;11.932;2023-03-15T13:07:55;96417.78;;;4.39;100.00
11038;BME280;5572;49.540;11.932;2023-03-15T13:10:52;96413.00;;;4.41;100.00
11038;BME280;5572;49.540;11.932;2023-03-15T13:13:31;96410.47;;;4.29;100.00
11038;BME280;5572;49.540;11.932;2023-03-15T13:16:15;96381.16;;;4.76;100.00
11038;BME280;5572;49.540;11.932;2023-03-15T13:18:53;96387.19;;;4.61;100.00
11038;BME280;5572;49.540;11.932;2023-03-15T13:21:25;96384.72;;;4.19;100.00
11038;BME280;5572;49.540;11.932;2023-03-15T13:23:57;96388.25;;;4.24;100.00